Time;durP1;ratioP1;P1;durP2;ratioP2;P2;SDS_P1;SDS_P2;PMS_P1;PMS_P2;Temp;Humidity;BMP_temperature;BMP_pressure;BME280_temperature;BME280_humidity;BME280_pressure;Samples;Min_cycle;Max_cycle;Signal;HPM_P1;HPM_P2
2023/12/21 00:00:53;;;;;;;5.90;3.40;;;;;;;;;;107562;1251;59805;-80
2023/12/21 00:03:39;;;;;;;7.30;3.70;;;;;;;;;;107472;1251;59185;-81
2023/12/21 00:06:06;;;;;;;6.70;3.70;;;;;;;;;;107561;1253;62097;-81
2023/12/21 00:08:32;;;;;;;4.70;3.00;;;;;;;;;;107771;1251;59933;-80
2023/12/21 00:10:59;;;;;;;7.20;4.30;;;;;;;;;;107733;1254;59027;-81
2023/12/21 00:13:26;;;;;;;7.00;3.90;;;;;;;;;;107504;1251;59232;-80
2023/12/21 00:15:53;;;;;;;7.80;4.10;;;;;;;;;;107517;1254;59469;-80
2023/12/21 00:18:19;;;;;;;5.40;2.70;;;;;;;;;;107595;1253;63057;-81
2023/12/21 00:20:46;;;;;;;7.80;3.70;;;;;;;;;;107489;1252;60802;-80
2023/12/21 00:23:13;;;;;;;4.20;2.90;;;;;;;;;;107511;1254;60997;-80
2023/12/21 00:25:39;;;;;;;5.30;3.60;;;;;;;;;;107576;1251;59766;-80
2023/12/21 00:28:06;;;;;;;7.10;3.30;;;;;;;;;;107540;1251;59877;-81
2023/12/21 00:30:32;;;;;;;10.40;3.40;;;;;;;;;;107571;1251;61711;-80
2023/12/21 00:32:59;;;;;;;6.90;3.30;;;;;;;;;;107553;1251;60972;-81
2023/12/21 00:35:25;;;;;;;9.60;5.10;;;;;;;;;;107533;1251;60955;-81
2023/12/21 00:37:52;;;;;;;6.60;3.40;;;;;;;;;;107515;1251;60742;-81
2023/12/21 00:40:18;;;;;;;5.40;3.70;;;;;;;;;;107488;1251;59829;-81
2023/12/21 00:42:46;;;;;;;7.60;5.40;;;;;;;;;;107479;1250;59703;-80
2023/12/21 00:45:13;;;;;;;4.80;3.30;;;;;;;;;;107505;1251;59915;-80
2023/12/21 00:47:39;;;;;;;5.40;3.80;;;;;;;;;;107591;1251;60817;-81
2023/12/21 00:50:06;;;;;;;6.10;4.00;;;;;;;;;;107510;1254;59497;-82
2023/12/21 00:52:33;;;;;;;6.70;3.50;;;;;;;;;;107545;1251;59766;-81
2023/12/21 00:54:59;;;;;;;3.60;3.10;;;;;;;;;;107484;1251;61595;-80
2023/12/21 00:57:25;;;;;;;5.30;3.20;;;;;;;;;;107522;1251;59822;-83
2023/12/21 00:59:52;;;;;;;5.40;3.60;;;;;;;;;;107623;1254;59850;-82
2023/12/21 01:02:18;;;;;;;5.40;3.40;;;;;;;;;;107380;1252;59740;-80
2023/12/21 01:04:45;;;;;;;4.90;2.80;;;;;;;;;;107552;1253;59284;-81
2023/12/21 01:07:11;;;;;;;5.60;3.20;;;;;;;;;;107463;1252;59814;-82
2023/12/21 01:09:38;;;;;;;4.30;2.80;;;;;;;;;;107504;1253;60744;-81
2023/12/21 01:12:05;;;;;;;7.20;5.80;;;;;;;;;;107471;1253;59735;-81
2023/12/21 01:14:32;;;;;;;7.00;4.70;;;;;;;;;;107463;1253;59220;-81
2023/12/21 01:16:59;;;;;;;4.40;2.70;;;;;;;;;;107487;1254;59543;-81
2023/12/21 01:19:26;;;;;;;6.90;4.90;;;;;;;;;;107466;1253;62211;-81
2023/12/21 01:21:53;;;;;;;6.70;4.80;;;;;;;;;;107470;1251;60897;-81
2023/12/21 01:24:19;;;;;;;5.70;3.20;;;;;;;;;;107542;1251;59407;-80
2023/12/21 01:26:46;;;;;;;3.20;1.80;;;;;;;;;;107538;1251;60842;-81
2023/12/21 01:29:12;;;;;;;6.20;3.10;;;;;;;;;;107517;1251;59804;-80
2023/12/21 01:31:39;;;;;;;3.90;2.00;;;;;;;;;;107515;1251;59757;-80
2023/12/21 01:34:05;;;;;;;2.50;1.80;;;;;;;;;;107512;1251;59741;-80
2023/12/21 01:36:32;;;;;;;5.00;4.50;;;;;;;;;;107507;1251;60295;-80
2023/12/21 01:38:58;;;;;;;3.70;2.60;;;;;;;;;;107564;1251;60802;-81
2023/12/21 01:41:25;;;;;;;3.60;2.20;;;;;;;;;;106990;1254;60868;-80
2023/12/21 01:43:51;;;;;;;4.60;2.40;;;;;;;;;;106999;1254;60728;-80
2023/12/21 01:46:18;;;;;;;6.50;4.40;;;;;;;;;;109576;1250;59067;-80
2023/12/21 01:48:45;;;;;;;5.80;3.70;;;;;;;;;;109560;1251;58872;-80
2023/12/21 01:51:11;;;;;;;15.30;13.70;;;;;;;;;;109551;1251;58971;-80
2023/12/21 01:53:38;;;;;;;5.00;3.50;;;;;;;;;;109552;1251;59275;-81
2023/12/21 01:56:05;;;;;;;4.80;3.20;;;;;;;;;;109541;1251;59235;-80
2023/12/21 01:58:31;;;;;;;4.60;3.10;;;;;;;;;;109490;1251;59475;-80
2023/12/21 02:00:58;;;;;;;4.90;1.70;;;;;;;;;;109491;1251;60762;-81
2023/12/21 02:03:25;;;;;;;5.40;2.60;;;;;;;;;;109458;1251;58944;-81
2023/12/21 02:05:51;;;;;;;3.10;2.40;;;;;;;;;;109518;1251;58879;-81
2023/12/21 02:08:18;;;;;;;3.90;2.40;;;;;;;;;;109534;1251;59068;-81
2023/12/21 02:10:44;;;;;;;4.90;3.50;;;;;;;;;;109376;1251;59136;-81
2023/12/21 02:13:11;;;;;;;4.10;2.40;;;;;;;;;;107515;1251;59191;-81
2023/12/21 02:15:37;;;;;;;3.00;2.10;;;;;;;;;;107486;1251;59839;-80
2023/12/21 02:18:04;;;;;;;3.40;2.50;;;;;;;;;;107389;1251;60808;-81
2023/12/21 02:20:31;;;;;;;7.00;3.90;;;;;;;;;;107487;1251;60749;-80
2023/12/21 02:22:59;;;;;;;5.00;3.30;;;;;;;;;;107543;1251;59829;-81
2023/12/21 02:25:25;;;;;;;4.50;3.00;;;;;;;;;;107472;1251;60403;-82
2023/12/21 02:27:55;;;;;;;3.00;2.00;;;;;;;;;;107514;1251;60825;-80
2023/12/21 02:30:21;;;;;;;4.50;2.50;;;;;;;;;;107588;1251;59724;-80
2023/12/21 02:32:48;;;;;;;6.10;2.40;;;;;;;;;;107478;1250;61671;-80
2023/12/21 02:35:15;;;;;;;4.10;2.20;;;;;;;;;;107558;1251;60866;-80
2023/12/21 02:37:42;;;;;;;2.90;1.90;;;;;;;;;;107484;1251;59867;-80
2023/12/21 02:40:09;;;;;;;4.80;2.00;;;;;;;;;;107015;1250;59903;-80
2023/12/21 02:42:35;;;;;;;3.00;1.70;;;;;;;;;;107004;1251;59826;-80
2023/12/21 02:45:02;;;;;;;2.70;1.90;;;;;;;;;;107044;1251;62883;-81
2023/12/21 02:47:28;;;;;;;2.60;2.20;;;;;;;;;;106998;1251;60730;-80
2023/12/21 02:49:54;;;;;;;5.10;2.20;;;;;;;;;;107001;1251;59919;-80
2023/12/21 02:52:21;;;;;;;3.00;2.00;;;;;;;;;;106973;1250;59761;-81
2023/12/21 02:54:47;;;;;;;4.40;2.90;;;;;;;;;;107021;1251;59481;-80
2023/12/21 02:57:14;;;;;;;5.40;4.40;;;;;;;;;;106984;1251;60736;-80
2023/12/21 02:59:43;;;;;;;2.70;2.00;;;;;;;;;;106986;1251;60871;-80
2023/12/21 03:02:10;;;;;;;4.60;2.40;;;;;;;;;;107003;1250;59927;-80
2023/12/21 03:04:36;;;;;;;2.80;1.90;;;;;;;;;;106961;1251;59729;-80
2023/12/21 03:07:03;;;;;;;3.30;2.50;;;;;;;;;;107001;1251;60145;-81
2023/12/21 03:09:29;;;;;;;5.30;2.10;;;;;;;;;;107014;1250;60900;-80
2023/12/21 03:11:56;;;;;;;23.60;12.30;;;;;;;;;;107526;1251;61022;-81
2023/12/21 03:14:22;;;;;;;4.40;2.70;;;;;;;;;;107521;1251;59960;-81
2023/12/21 03:16:49;;;;;;;6.70;3.40;;;;;;;;;;107610;1251;60860;-81
2023/12/21 03:19:15;;;;;;;3.80;2.30;;;;;;;;;;107691;1250;61990;-80
2023/12/21 03:21:42;;;;;;;17.50;8.20;;;;;;;;;;107598;1251;59438;-80
2023/12/21 03:24:09;;;;;;;6.90;4.10;;;;;;;;;;107567;1251;59743;-80
2023/12/21 03:26:35;;;;;;;13.70;7.70;;;;;;;;;;107600;1251;60819;-81
2023/12/21 03:29:02;;;;;;;17.00;9.00;;;;;;;;;;107648;1251;59676;-82
2023/12/21 03:31:28;;;;;;;9.00;5.80;;;;;;;;;;107042;1251;59155;-81
2023/12/21 03:33:54;;;;;;;7.50;3.50;;;;;;;;;;107521;1251;59418;-80
2023/12/21 03:36:21;;;;;;;4.00;2.50;;;;;;;;;;107513;1251;59517;-80
2023/12/21 03:38:48;;;;;;;7.60;3.20;;;;;;;;;;107539;1250;59731;-80
2023/12/21 03:41:15;;;;;;;1.90;1.30;;;;;;;;;;107557;1250;62034;-80
2023/12/21 03:43:41;;;;;;;3.50;2.60;;;;;;;;;;107499;1251;59236;-80
2023/12/21 03:46:09;;;;;;;4.00;2.40;;;;;;;;;;107557;1255;60004;-81
2023/12/21 03:48:35;;;;;;;5.20;2.90;;;;;;;;;;107543;1251;59745;-80
2023/12/21 03:51:02;;;;;;;3.40;2.30;;;;;;;;;;107021;1251;60891;-79
2023/12/21 03:53:29;;;;;;;12.40;4.40;;;;;;;;;;107051;1251;59900;-79
2023/12/21 03:55:55;;;;;;;5.60;3.40;;;;;;;;;;106951;1251;60799;-80
2023/12/21 03:58:22;;;;;;;3.10;2.70;;;;;;;;;;107001;1252;59704;-81
2023/12/21 04:00:48;;;;;;;12.50;7.80;;;;;;;;;;106966;1251;60960;-80
2023/12/21 04:03:15;;;;;;;30.70;21.80;;;;;;;;;;107454;1251;59777;-80
2023/12/21 04:05:41;;;;;;;51.90;38.90;;;;;;;;;;107529;1251;60958;-82
2023/12/21 04:08:08;;;;;;;27.30;17.20;;;;;;;;;;107499;1252;59708;-81
2023/12/21 04:10:34;;;;;;;99.20;40.00;;;;;;;;;;107493;1251;59760;-81
2023/12/21 04:13:01;;;;;;;26.40;13.50;;;;;;;;;;107573;1251;59510;-81
2023/12/21 04:15:27;;;;;;;16.10;6.90;;;;;;;;;;109319;1251;58908;-82
2023/12/21 04:17:54;;;;;;;64.20;23.10;;;;;;;;;;107471;1251;59823;-82
2023/12/21 04:20:20;;;;;;;30.80;14.20;;;;;;;;;;107446;1251;59829;-81
2023/12/21 04:22:47;;;;;;;7.00;3.30;;;;;;;;;;107559;1251;59781;-80
2023/12/21 04:25:13;;;;;;;5.90;3.20;;;;;;;;;;107581;1251;59162;-81
2023/12/21 04:27:40;;;;;;;56.60;23.80;;;;;;;;;;107514;1251;59320;-81
2023/12/21 04:30:07;;;;;;;12.90;7.20;;;;;;;;;;107570;1251;59204;-81
2023/12/21 04:32:33;;;;;;;31.40;14.50;;;;;;;;;;107506;1251;59764;-80
2023/12/21 04:35:00;;;;;;;70.50;28.90;;;;;;;;;;107465;1251;59845;-81
2023/12/21 04:37:26;;;;;;;67.90;25.30;;;;;;;;;;107516;1251;59832;-80
2023/12/21 04:39:53;;;;;;;46.10;19.00;;;;;;;;;;107557;1251;60410;-81
2023/12/21 04:42:19;;;;;;;36.30;16.20;;;;;;;;;;107579;1253;59735;-80
2023/12/21 04:44:46;;;;;;;12.40;6.20;;;;;;;;;;107544;1251;59850;-80
2023/12/21 04:47:12;;;;;;;8.70;5.10;;;;;;;;;;107532;1253;60829;-80
2023/12/21 04:49:39;;;;;;;10.30;6.60;;;;;;;;;;107646;1252;59834;-80
2023/12/21 04:52:05;;;;;;;5.90;2.30;;;;;;;;;;107646;1252;60789;-80
2023/12/21 04:54:32;;;;;;;11.40;6.80;;;;;;;;;;107649;1253;60883;-80
2023/12/21 04:56:58;;;;;;;4.40;2.50;;;;;;;;;;108141;1251;59207;-80
2023/12/21 04:59:26;;;;;;;3.50;2.20;;;;;;;;;;109102;1251;59945;-81
2023/12/21 05:01:54;;;;;;;3.30;1.70;;;;;;;;;;109553;1251;58929;-80
2023/12/21 05:04:20;;;;;;;3.50;2.70;;;;;;;;;;109568;1251;59355;-80
2023/12/21 05:06:47;;;;;;;4.00;2.50;;;;;;;;;;109721;1251;58238;-81
2023/12/21 05:09:13;;;;;;;3.40;2.40;;;;;;;;;;109651;1251;58816;-81
2023/12/21 05:11:40;;;;;;;3.30;1.50;;;;;;;;;;108883;1250;61650;-81
2023/12/21 05:14:06;;;;;;;2.90;1.50;;;;;;;;;;108046;1251;59228;-81
2023/12/21 05:16:33;;;;;;;5.30;3.50;;;;;;;;;;108058;1251;60192;-81
2023/12/21 05:18:59;;;;;;;7.70;2.90;;;;;;;;;;107789;1250;59887;-81
2023/12/21 05:21:26;;;;;;;9.60;3.60;;;;;;;;;;107638;1251;60843;-81
2023/12/21 05:23:52;;;;;;;4.80;2.90;;;;;;;;;;107083;1251;59416;-80
2023/12/21 05:26:19;;;;;;;5.70;3.10;;;;;;;;;;107592;1251;59451;-81
2023/12/21 05:28:46;;;;;;;6.10;3.60;;;;;;;;;;107595;1251;59613;-81
2023/12/21 05:31:12;;;;;;;4.30;3.00;;;;;;;;;;107479;1251;60864;-81
2023/12/21 05:33:39;;;;;;;2.50;1.90;;;;;;;;;;107514;1251;59779;-81
2023/12/21 05:36:06;;;;;;;8.40;5.40;;;;;;;;;;107491;1251;60823;-80
2023/12/21 05:38:34;;;;;;;4.50;3.10;;;;;;;;;;107540;1251;59292;-81
2023/12/21 05:41:00;;;;;;;2.40;2.20;;;;;;;;;;109529;1251;59765;-81
2023/12/21 05:43:27;;;;;;;1.40;1.00;;;;;;;;;;108107;1253;59491;-81
2023/12/21 05:45:53;;;;;;;2.70;1.40;;;;;;;;;;107516;1251;59463;-80
2023/12/21 05:48:20;;;;;;;2.20;1.40;;;;;;;;;;107581;1251;59449;-80
2023/12/21 05:50:46;;;;;;;2.40;1.40;;;;;;;;;;107554;1251;59837;-80
2023/12/21 05:53:12;;;;;;;4.70;3.40;;;;;;;;;;107519;1251;60995;-81
2023/12/21 05:55:39;;;;;;;3.70;2.50;;;;;;;;;;107609;1251;59608;-80
2023/12/21 05:58:05;;;;;;;9.60;5.10;;;;;;;;;;107842;1252;59713;-81
2023/12/21 06:00:32;;;;;;;13.50;8.10;;;;;;;;;;109557;1250;59066;-81
2023/12/21 06:02:58;;;;;;;5.50;3.60;;;;;;;;;;108436;1251;60749;-81
2023/12/21 06:05:25;;;;;;;3.30;2.10;;;;;;;;;;107576;1250;59697;-80
2023/12/21 06:07:52;;;;;;;2.70;1.70;;;;;;;;;;107626;1251;60574;-81
2023/12/21 06:10:18;;;;;;;2.60;2.30;;;;;;;;;;107604;1251;60909;-81
2023/12/21 06:12:45;;;;;;;3.30;2.60;;;;;;;;;;107713;1251;60816;-81
2023/12/21 06:15:11;;;;;;;1.90;1.50;;;;;;;;;;109521;1251;58924;-81
2023/12/21 06:17:38;;;;;;;2.70;1.60;;;;;;;;;;109534;1251;59185;-80
2023/12/21 06:20:04;;;;;;;1.90;1.20;;;;;;;;;;109531;1251;59033;-80
2023/12/21 06:22:31;;;;;;;2.90;2.20;;;;;;;;;;109688;1250;58958;-81
2023/12/21 06:24:57;;;;;;;2.40;2.00;;;;;;;;;;109632;1250;61608;-80
2023/12/21 06:27:24;;;;;;;2.70;1.70;;;;;;;;;;109590;1251;59038;-81
2023/12/21 06:29:51;;;;;;;4.20;3.50;;;;;;;;;;109540;1251;60648;-81
2023/12/21 06:32:17;;;;;;;4.40;3.80;;;;;;;;;;109444;1250;161487;-81
2023/12/21 06:34:44;;;;;;;2.70;2.20;;;;;;;;;;108742;1251;59838;-81
2023/12/21 06:37:10;;;;;;;3.90;3.30;;;;;;;;;;109124;1251;61608;-81
2023/12/21 06:39:37;;;;;;;2.80;1.70;;;;;;;;;;109583;1251;59152;-81
2023/12/21 06:42:04;;;;;;;1.90;1.30;;;;;;;;;;109586;1251;59336;-81
2023/12/21 06:44:30;;;;;;;2.40;1.70;;;;;;;;;;109557;1250;58872;-80
2023/12/21 06:46:57;;;;;;;2.40;1.30;;;;;;;;;;107949;1251;61997;-80
2023/12/21 06:49:23;;;;;;;2.90;1.50;;;;;;;;;;108994;1251;60504;-80
2023/12/21 06:51:50;;;;;;;2.70;1.60;;;;;;;;;;109541;1251;59007;-80
2023/12/21 06:54:17;;;;;;;2.40;1.30;;;;;;;;;;109584;1251;60681;-81
2023/12/21 06:56:44;;;;;;;2.00;0.90;;;;;;;;;;109620;1250;59057;-81
2023/12/21 06:59:10;;;;;;;1.90;1.10;;;;;;;;;;109640;1250;59082;-81
2023/12/21 07:01:37;;;;;;;2.70;1.40;;;;;;;;;;108347;1251;62549;-81
2023/12/21 07:04:03;;;;;;;2.70;2.30;;;;;;;;;;107776;1251;59909;-79
2023/12/21 07:06:30;;;;;;;6.40;4.30;;;;;;;;;;107232;1251;59731;-79
2023/12/21 07:08:56;;;;;;;3.20;2.10;;;;;;;;;;107028;1251;59749;-80
2023/12/21 07:11:23;;;;;;;2.70;1.50;;;;;;;;;;107132;1252;59121;-79
2023/12/21 07:13:49;;;;;;;3.70;2.30;;;;;;;;;;107086;1251;59798;-79
2023/12/21 07:16:16;;;;;;;9.20;4.90;;;;;;;;;;107163;1251;60782;-81
2023/12/21 07:18:42;;;;;;;1.90;1.30;;;;;;;;;;108120;1256;59659;-80
2023/12/21 07:21:09;;;;;;;3.80;1.50;;;;;;;;;;109538;1250;58987;-81
2023/12/21 07:23:35;;;;;;;2.60;1.30;;;;;;;;;;109523;1251;59141;-80
2023/12/21 07:26:03;;;;;;;3.80;1.70;;;;;;;;;;109519;1250;62940;-80
2023/12/21 07:28:30;;;;;;;5.30;3.20;;;;;;;;;;109542;1251;58882;-80
2023/12/21 07:30:59;;;;;;;11.60;6.70;;;;;;;;;;109521;1251;59455;-80
2023/12/21 07:33:26;;;;;;;13.30;4.70;;;;;;;;;;109526;1251;59235;-80
2023/12/21 07:35:52;;;;;;;13.90;6.90;;;;;;;;;;108592;1251;59770;-80
2023/12/21 07:38:18;;;;;;;14.30;7.60;;;;;;;;;;107058;1254;62559;-79
2023/12/21 07:40:46;;;;;;;14.30;6.10;;;;;;;;;;108078;1253;59680;-81
2023/12/21 07:43:12;;;;;;;8.30;5.10;;;;;;;;;;107757;1252;60962;-81
2023/12/21 07:45:39;;;;;;;5.10;2.10;;;;;;;;;;108004;1250;60897;-80
2023/12/21 07:48:05;;;;;;;6.50;3.80;;;;;;;;;;107811;1253;59745;-80
2023/12/21 07:50:32;;;;;;;2.60;1.70;;;;;;;;;;108097;1251;62625;-80
2023/12/21 07:52:58;;;;;;;3.80;2.10;;;;;;;;;;107657;1251;60685;-79
2023/12/21 07:55:25;;;;;;;4.50;2.40;;;;;;;;;;107890;1251;59765;-80
2023/12/21 07:57:52;;;;;;;4.50;2.50;;;;;;;;;;107171;1253;60868;-80
2023/12/21 08:00:18;;;;;;;2.60;1.80;;;;;;;;;;107463;1251;60930;-80
2023/12/21 08:02:45;;;;;;;6.70;4.10;;;;;;;;;;107213;1250;61884;-80
2023/12/21 08:05:12;;;;;;;7.00;5.30;;;;;;;;;;107062;1253;60998;-80
2023/12/21 08:07:39;;;;;;;2.50;2.10;;;;;;;;;;106974;1251;59907;-80
2023/12/21 08:10:08;;;;;;;5.60;2.00;;;;;;;;;;107533;1251;59934;-81
2023/12/21 08:12:35;;;;;;;1.70;1.00;;;;;;;;;;107631;1251;59747;-81
2023/12/21 08:15:02;;;;;;;1.60;0.90;;;;;;;;;;107934;1251;60942;-80
2023/12/21 08:17:29;;;;;;;1.80;1.30;;;;;;;;;;107887;1251;59252;-80
2023/12/21 08:19:56;;;;;;;4.00;1.80;;;;;;;;;;107828;1251;59765;-79
2023/12/21 08:22:22;;;;;;;5.30;2.00;;;;;;;;;;107911;1251;60821;-81
2023/12/21 08:24:51;;;;;;;1.30;1.00;;;;;;;;;;107802;1250;60776;-80
2023/12/21 08:27:21;;;;;;;3.40;1.40;;;;;;;;;;107649;1251;60850;-81
2023/12/21 08:29:47;;;;;;;1.80;1.10;;;;;;;;;;107614;1251;59790;-82
2023/12/21 08:32:14;;;;;;;5.90;2.20;;;;;;;;;;107394;1250;60617;-81
2023/12/21 08:34:40;;;;;;;4.10;3.20;;;;;;;;;;107369;1251;59896;-80
2023/12/21 08:37:07;;;;;;;6.60;3.80;;;;;;;;;;107204;1251;59907;-80
2023/12/21 08:39:33;;;;;;;5.90;3.80;;;;;;;;;;107161;1251;61013;-80
2023/12/21 08:42:02;;;;;;;3.20;2.50;;;;;;;;;;107262;1253;59822;-80
2023/12/21 08:44:29;;;;;;;3.40;2.20;;;;;;;;;;107280;1251;59809;-81
2023/12/21 08:46:55;;;;;;;1.90;1.00;;;;;;;;;;107100;1251;59569;-81
2023/12/21 08:49:22;;;;;;;1.60;1.00;;;;;;;;;;107278;1251;59807;-81
2023/12/21 08:51:49;;;;;;;3.10;1.80;;;;;;;;;;107253;1251;59771;-80
2023/12/21 08:54:17;;;;;;;1.40;1.00;;;;;;;;;;107197;1251;60837;-81
2023/12/21 08:56:44;;;;;;;4.90;4.40;;;;;;;;;;107225;1253;60350;-81
2023/12/21 08:59:11;;;;;;;2.60;1.60;;;;;;;;;;107355;1251;60878;-80
2023/12/21 09:01:37;;;;;;;2.50;1.30;;;;;;;;;;107394;1251;60843;-80
2023/12/21 09:04:04;;;;;;;3.10;2.40;;;;;;;;;;107218;1251;60735;-81
2023/12/21 09:06:31;;;;;;;4.40;2.90;;;;;;;;;;107359;1251;59556;-81
2023/12/21 09:08:58;;;;;;;4.70;3.50;;;;;;;;;;107304;1253;59838;-80
2023/12/21 09:11:28;;;;;;;5.60;2.80;;;;;;;;;;107388;1251;60939;-81
2023/12/21 09:13:55;;;;;;;2.60;1.50;;;;;;;;;;107281;1250;59392;-82
2023/12/21 09:16:22;;;;;;;3.00;1.60;;;;;;;;;;107279;1253;62576;-80
2023/12/21 09:18:49;;;;;;;4.60;3.00;;;;;;;;;;107203;1255;60772;-83
2023/12/21 09:21:15;;;;;;;7.50;2.40;;;;;;;;;;107453;1253;59847;-80
2023/12/21 09:23:42;;;;;;;8.40;2.50;;;;;;;;;;107228;1251;59803;-80
2023/12/21 09:26:09;;;;;;;3.80;2.40;;;;;;;;;;107977;1251;61169;-80
2023/12/21 09:28:36;;;;;;;1.80;1.40;;;;;;;;;;107213;1251;61668;-80
2023/12/21 09:31:03;;;;;;;3.00;1.50;;;;;;;;;;107826;1251;59776;-80
2023/12/21 09:33:34;;;;;;;4.30;1.90;;;;;;;;;;107913;1251;60811;-80
2023/12/21 09:36:00;;;;;;;2.80;1.50;;;;;;;;;;107233;1253;62038;-81
2023/12/21 09:38:27;;;;;;;3.70;2.20;;;;;;;;;;107246;1253;59513;-80
2023/12/21 09:40:53;;;;;;;2.70;1.70;;;;;;;;;;107305;1251;62878;-80
2023/12/21 09:43:21;;;;;;;2.30;1.40;;;;;;;;;;107837;1251;60970;-81
2023/12/21 09:45:49;;;;;;;2.80;2.10;;;;;;;;;;107752;1251;59801;-81
2023/12/21 09:48:15;;;;;;;3.00;2.10;;;;;;;;;;109473;1254;59109;-80
2023/12/21 09:50:45;;;;;;;5.50;3.10;;;;;;;;;;109499;1250;58859;-81
2023/12/21 09:53:12;;;;;;;4.50;3.40;;;;;;;;;;109506;1251;61684;-80
2023/12/21 09:55:40;;;;;;;3.40;2.20;;;;;;;;;;109514;1250;59293;-80
2023/12/21 09:58:06;;;;;;;2.30;1.50;;;;;;;;;;109465;1253;59005;-81
2023/12/21 10:00:32;;;;;;;3.90;1.90;;;;;;;;;;109425;1253;59148;-80
2023/12/21 10:02:59;;;;;;;4.10;2.60;;;;;;;;;;109497;1253;58909;-80
2023/12/21 10:05:26;;;;;;;4.30;2.30;;;;;;;;;;109515;1251;62738;-80
2023/12/21 10:07:52;;;;;;;5.90;2.70;;;;;;;;;;109553;1250;58890;-80
2023/12/21 10:10:19;;;;;;;3.80;2.40;;;;;;;;;;109491;1251;59316;-80
2023/12/21 10:12:46;;;;;;;2.50;1.50;;;;;;;;;;109501;1253;58907;-80
2023/12/21 10:15:12;;;;;;;5.70;4.60;;;;;;;;;;109525;1253;59126;-80
2023/12/21 10:17:39;;;;;;;4.30;3.20;;;;;;;;;;109569;1250;61000;-80
2023/12/21 10:20:06;;;;;;;5.10;3.40;;;;;;;;;;109578;1253;59195;-80
2023/12/21 10:22:32;;;;;;;5.60;3.20;;;;;;;;;;109532;1251;59117;-81
2023/12/21 10:24:59;;;;;;;2.70;1.90;;;;;;;;;;109508;1250;59297;-80
2023/12/21 10:27:27;;;;;;;4.30;2.70;;;;;;;;;;109549;1251;58930;-80
2023/12/21 10:29:53;;;;;;;2.40;2.00;;;;;;;;;;109530;1250;62007;-80
2023/12/21 10:32:20;;;;;;;2.80;1.70;;;;;;;;;;109508;1251;58946;-80
2023/12/21 10:34:47;;;;;;;4.30;2.90;;;;;;;;;;109514;1253;59466;-80
2023/12/21 10:37:17;;;;;;;2.50;1.70;;;;;;;;;;109060;1251;59816;-80
2023/12/21 10:39:43;;;;;;;2.20;1.00;;;;;;;;;;107869;1251;59107;-80
2023/12/21 10:42:10;;;;;;;6.20;5.30;;;;;;;;;;107896;1249;61914;-80
2023/12/21 10:44:37;;;;;;;2.30;1.20;;;;;;;;;;108313;1253;60775;-81
2023/12/21 10:47:03;;;;;;;3.10;1.60;;;;;;;;;;108456;1253;60381;-80
2023/12/21 10:49:30;;;;;;;2.90;2.20;;;;;;;;;;107802;1251;60814;-80
2023/12/21 10:51:57;;;;;;;2.40;1.30;;;;;;;;;;107862;1251;59990;-81
2023/12/21 10:54:24;;;;;;;1.40;0.80;;;;;;;;;;107793;1250;62212;-80
2023/12/21 10:56:51;;;;;;;7.50;3.50;;;;;;;;;;107771;1253;60851;-81
2023/12/21 10:59:19;;;;;;;6.30;4.20;;;;;;;;;;107835;1253;59805;-81
2023/12/21 11:01:46;;;;;;;5.20;2.40;;;;;;;;;;107897;1253;59896;-81
2023/12/21 11:04:13;;;;;;;4.90;3.10;;;;;;;;;;107291;1252;60266;-81
2023/12/21 11:06:40;;;;;;;5.50;3.00;;;;;;;;;;107231;1253;62569;-80
2023/12/21 11:09:06;;;;;;;5.90;3.20;;;;;;;;;;107188;1253;61954;-80
2023/12/21 11:11:34;;;;;;;9.60;4.10;;;;;;;;;;107405;1251;60692;-80
2023/12/21 11:14:00;;;;;;;7.80;4.20;;;;;;;;;;107141;1252;59808;-80
2023/12/21 11:16:32;;;;;;;4.30;2.30;;;;;;;;;;107280;1250;59402;-82
2023/12/21 11:18:59;;;;;;;5.10;2.90;;;;;;;;;;107192;1255;62930;-81
2023/12/21 11:21:26;;;;;;;7.60;3.60;;;;;;;;;;107442;1251;61295;-80
2023/12/21 11:23:53;;;;;;;4.50;2.30;;;;;;;;;;107229;1251;61912;-80
2023/12/21 11:26:21;;;;;;;3.90;1.70;;;;;;;;;;107801;1251;60817;-81
2023/12/21 11:28:47;;;;;;;2.60;1.70;;;;;;;;;;107677;1252;61066;-81
2023/12/21 11:31:14;;;;;;;5.00;3.20;;;;;;;;;;107357;1251;62931;-80
2023/12/21 11:33:40;;;;;;;4.10;2.20;;;;;;;;;;107251;1255;59928;-80
2023/12/21 11:36:10;;;;;;;5.90;3.40;;;;;;;;;;107214;1251;61872;-80
2023/12/21 11:38:38;;;;;;;3.20;2.30;;;;;;;;;;107246;1254;60825;-81
2023/12/21 11:41:05;;;;;;;15.60;8.10;;;;;;;;;;107321;1255;60958;-80
2023/12/21 11:43:32;;;;;;;4.50;2.50;;;;;;;;;;107692;1253;62201;-80
2023/12/21 11:45:59;;;;;;;3.00;1.50;;;;;;;;;;107835;1253;59143;-80
2023/12/21 11:48:25;;;;;;;17.10;8.90;;;;;;;;;;107865;1253;60929;-80
2023/12/21 11:50:59;;;;;;;9.70;5.20;;;;;;;;;;107955;1251;59491;-80
2023/12/21 11:53:26;;;;;;;9.10;4.20;;;;;;;;;;107888;1252;59149;-80
2023/12/21 11:55:52;;;;;;;5.30;3.10;;;;;;;;;;107830;1253;61450;-80
2023/12/21 11:58:19;;;;;;;5.30;2.30;;;;;;;;;;108175;1251;59774;-80
2023/12/21 12:00:49;;;;;;;3.80;2.50;;;;;;;;;;109531;1251;59785;-80
2023/12/21 12:03:15;;;;;;;7.10;4.10;;;;;;;;;;109486;1255;58852;-80
2023/12/21 12:05:42;;;;;;;6.60;3.20;;;;;;;;;;109414;1253;59037;-80
2023/12/21 12:08:09;;;;;;;4.60;2.90;;;;;;;;;;107736;1251;62582;-80
2023/12/21 12:10:35;;;;;;;3.60;2.10;;;;;;;;;;107854;1251;60714;-80
2023/12/21 12:13:02;;;;;;;2.40;1.80;;;;;;;;;;107804;1251;59372;-80
2023/12/21 12:15:29;;;;;;;4.60;2.50;;;;;;;;;;107900;1253;59838;-81
2023/12/21 12:17:56;;;;;;;4.60;2.60;;;;;;;;;;107847;1251;59570;-80
2023/12/21 12:20:22;;;;;;;6.00;3.10;;;;;;;;;;107450;1255;60421;-80
2023/12/21 12:22:52;;;;;;;2.00;1.50;;;;;;;;;;107521;1251;60844;-81
2023/12/21 12:25:19;;;;;;;4.70;2.20;;;;;;;;;;107402;1253;61774;-80
2023/12/21 12:27:46;;;;;;;26.10;10.80;;;;;;;;;;107282;1251;59683;-80
2023/12/21 12:30:13;;;;;;;34.90;13.00;;;;;;;;;;107502;1251;59735;-79
2023/12/21 12:32:40;;;;;;;78.90;25.80;;;;;;;;;;107400;1253;62557;-80
2023/12/21 12:35:11;;;;;;;54.70;19.10;;;;;;;;;;107251;1253;60779;-80
2023/12/21 12:37:37;;;;;;;72.80;23.30;;;;;;;;;;107281;1253;60671;-80
2023/12/21 12:40:05;;;;;;;72.30;25.50;;;;;;;;;;107204;1251;60855;-80
2023/12/21 12:42:31;;;;;;;53.70;21.00;;;;;;;;;;109512;1251;59314;-80
2023/12/21 12:44:58;;;;;;;46.40;21.10;;;;;;;;;;108257;1251;61176;-80
2023/12/21 12:47:26;;;;;;;41.00;16.80;;;;;;;;;;107787;1251;59802;-80
2023/12/21 12:49:53;;;;;;;37.60;15.10;;;;;;;;;;107826;1252;59739;-80
2023/12/21 12:52:21;;;;;;;22.10;10.70;;;;;;;;;;107263;1251;59860;-80
2023/12/21 12:54:48;;;;;;;7.00;3.00;;;;;;;;;;108775;1251;58978;-80
2023/12/21 12:57:16;;;;;;;4.80;3.20;;;;;;;;;;106948;1251;60423;-80
2023/12/21 12:59:43;;;;;;;6.80;2.90;;;;;;;;;;107055;1253;59223;-80
2023/12/21 13:02:11;;;;;;;6.50;3.70;;;;;;;;;;107083;1253;61987;-80
2023/12/21 13:04:37;;;;;;;6.70;3.80;;;;;;;;;;107072;1251;60722;-80
2023/12/21 13:07:04;;;;;;;15.40;7.20;;;;;;;;;;107065;1253;59722;-79
2023/12/21 13:09:31;;;;;;;8.00;5.30;;;;;;;;;;107026;1253;61034;-80
2023/12/21 13:11:57;;;;;;;9.20;5.20;;;;;;;;;;107381;1253;60990;-80
2023/12/21 13:14:24;;;;;;;5.00;3.10;;;;;;;;;;106991;1253;60895;-80
2023/12/21 13:16:50;;;;;;;2.50;1.90;;;;;;;;;;107032;1251;60937;-80
2023/12/21 13:19:17;;;;;;;3.20;1.50;;;;;;;;;;107713;1253;59473;-80
2023/12/21 13:21:44;;;;;;;2.90;1.60;;;;;;;;;;107931;1255;60138;-81
2023/12/21 13:24:10;;;;;;;4.70;2.00;;;;;;;;;;107861;1254;60819;-80
2023/12/21 13:26:37;;;;;;;9.80;7.50;;;;;;;;;;107617;1253;60811;-80
2023/12/21 13:29:05;;;;;;;7.00;5.70;;;;;;;;;;107474;1255;60755;-81
2023/12/21 13:31:31;;;;;;;3.10;2.00;;;;;;;;;;107655;1252;59806;-80
2023/12/21 13:33:58;;;;;;;5.20;3.30;;;;;;;;;;107462;1254;60590;-81
2023/12/21 13:36:24;;;;;;;4.10;2.60;;;;;;;;;;107493;1253;60795;-80
2023/12/21 13:38:52;;;;;;;5.10;2.40;;;;;;;;;;107450;1253;59728;-80
2023/12/21 13:41:19;;;;;;;3.20;1.80;;;;;;;;;;107396;1254;61226;-80
2023/12/21 13:43:46;;;;;;;11.60;5.00;;;;;;;;;;107576;1251;59646;-80
2023/12/21 13:46:12;;;;;;;7.30;4.30;;;;;;;;;;107380;1251;60957;-80
2023/12/21 13:48:39;;;;;;;12.20;5.90;;;;;;;;;;107293;1256;59753;-80
2023/12/21 13:51:05;;;;;;;10.10;4.80;;;;;;;;;;107708;1255;60822;-80
2023/12/21 13:53:32;;;;;;;22.50;10.70;;;;;;;;;;107494;1251;61197;-80
2023/12/21 13:55:58;;;;;;;95.90;37.50;;;;;;;;;;107517;1251;59041;-80
2023/12/21 13:58:26;;;;;;;12.30;7.10;;;;;;;;;;107489;1254;59734;-80
2023/12/21 14:00:53;;;;;;;23.90;15.00;;;;;;;;;;107891;1251;60874;-80
2023/12/21 14:03:19;;;;;;;16.50;8.30;;;;;;;;;;107791;1253;59421;-80
2023/12/21 14:05:46;;;;;;;30.00;18.90;;;;;;;;;;107440;1251;60875;-80
2023/12/21 14:08:14;;;;;;;22.10;8.80;;;;;;;;;;107228;1251;60732;-80
2023/12/21 14:10:40;;;;;;;22.40;10.30;;;;;;;;;;107294;1251;60638;-80
2023/12/21 14:13:07;;;;;;;15.60;6.60;;;;;;;;;;107314;1251;59754;-80
2023/12/21 14:15:36;;;;;;;46.80;18.10;;;;;;;;;;107309;1254;59835;-80
2023/12/21 14:18:02;;;;;;;73.80;33.00;;;;;;;;;;107177;1253;59674;-80
2023/12/21 14:20:29;;;;;;;128.20;47.00;;;;;;;;;;107287;1251;59455;-80
2023/12/21 14:22:55;;;;;;;194.50;65.00;;;;;;;;;;107235;1251;59426;-80